Terminal Aerodrome Forecast
Issued by NWS

Home | Current Version | Previous Version | Text Only | Print | Product List | Glossary On
Versions: 1 2 3 4 5 6 7 8 9 10 11 12 13 14 15 16 17 18 19 20
000
FTUS43 KIND 221057 AAB
TAFHUF
TAF AMD
KHUF 221057Z 2211/2306 00000KT 1/4SM FG VV005
      TEMPO 2211/2213 1SM BR OVC020
     FM221300 00000KT 2SM BR OVC005
     FM221500 VRB03KT P6SM BKN008
     FM221700 20006KT P6SM BKN020
     FM222000 20008KT P6SM BKN040=

USA.gov is the U.S. government's official web portal to all federal, state and local government web resources and services.